Time;durP1;ratioP1;P1;durP2;ratioP2;P2;SDS_P1;SDS_P2;PMS_P1;PMS_P2;Temp;Humidity;BMP_temperature;BMP_pressure;BME280_temperature;BME280_humidity;BME280_pressure;Samples;Min_cycle;Max_cycle;Signal;HPM_P1;HPM_P2
2021/07/30 00:01:40;;;;;;;15.50;14.20;;;16.30;99.90;;;;;;5110966;28;20993;-67
2021/07/30 00:04:07;;;;;;;15.50;14.30;;;16.30;99.90;;;;;;5110791;28;20933;-67
2021/07/30 00:06:34;;;;;;;14.40;13.30;;;16.30;99.90;;;;;;5111310;28;20929;-68
2021/07/30 00:09:00;;;;;;;13.67;13.07;;;16.40;99.90;;;;;;5111073;28;20477;-67
2021/07/30 00:11:28;;;;;;;15.07;14.17;;;16.40;99.90;;;;;;5110993;28;21226;-67
2021/07/30 00:13:55;;;;;;;14.40;13.70;;;16.40;99.90;;;;;;5111305;28;20787;-67
2021/07/30 00:16:22;;;;;;;15.13;14.07;;;16.50;99.90;;;;;;5111144;28;20813;-67
2021/07/30 00:18:49;;;;;;;15.13;14.17;;;16.50;99.90;;;;;;5111258;28;20461;-67
2021/07/30 00:21:15;;;;;;;15.10;14.10;;;16.50;99.90;;;;;;5110534;28;20437;-67
2021/07/30 00:23:42;;;;;;;14.90;13.80;;;16.50;99.90;;;;;;5111257;28;20442;-67
2021/07/30 00:26:09;;;;;;;14.47;13.53;;;16.50;99.90;;;;;;5111033;28;20445;-67
2021/07/30 00:28:37;;;;;;;14.47;13.50;;;16.50;99.90;;;;;;5110887;28;20480;-67
2021/07/30 00:31:03;;;;;;;15.07;14.20;;;16.50;99.90;;;;;;5110652;28;20437;-67
2021/07/30 00:33:30;;;;;;;14.43;13.60;;;16.60;99.90;;;;;;5113620;28;20433;-67
2021/07/30 00:35:57;;;;;;;14.67;13.83;;;16.60;99.90;;;;;;5114955;28;20494;-67
2021/07/30 00:38:24;;;;;;;14.90;14.20;;;16.70;99.90;;;;;;5114776;28;20461;-67
2021/07/30 00:40:51;;;;;;;15.00;14.10;;;16.70;99.90;;;;;;5115071;28;20452;-67
2021/07/30 00:43:18;;;;;;;14.47;13.40;;;16.80;99.90;;;;;;5114634;28;20445;-67
2021/07/30 00:45:46;;;;;;;15.27;13.97;;;16.80;99.90;;;;;;5115122;28;20445;-67
2021/07/30 00:48:14;;;;;;;14.30;13.33;;;16.80;99.90;;;;;;5114679;28;20518;-67
2021/07/30 00:50:44;;;;;;;14.73;13.83;;;16.90;99.90;;;;;;5114415;28;20476;-67
2021/07/30 00:53:11;;;;;;;15.23;14.50;;;16.90;99.90;;;;;;5114235;28;20433;-67
2021/07/30 00:55:38;;;;;;;17.43;16.10;;;16.90;99.90;;;;;;5114645;28;20445;-67
2021/07/30 00:58:05;;;;;;;15.60;14.60;;;16.90;99.90;;;;;;5114457;28;20798;-67
2021/07/30 01:00:32;;;;;;;15.10;13.93;;;16.90;99.90;;;;;;5106839;28;20441;-67
2021/07/30 01:03:00;;;;;;;16.10;14.70;;;17.00;99.90;;;;;;5114554;28;20448;-67
2021/07/30 01:05:28;;;;;;;14.47;13.50;;;17.00;99.90;;;;;;5114155;28;20446;-67
2021/07/30 01:07:54;;;;;;;14.37;13.30;;;17.00;99.90;;;;;;5114203;28;20440;-67
2021/07/30 01:10:21;;;;;;;14.73;13.63;;;17.00;99.90;;;;;;5114178;28;20477;-68
2021/07/30 01:12:48;;;;;;;15.03;14.23;;;17.00;99.90;;;;;;5114067;28;20541;-67
2021/07/30 01:15:15;;;;;;;16.20;14.90;;;17.00;99.90;;;;;;5114039;28;20937;-67
2021/07/30 01:17:41;;;;;;;15.00;13.77;;;17.10;99.90;;;;;;5114328;28;20445;-67
2021/07/30 01:20:11;;;;;;;14.50;13.33;;;17.00;99.90;;;;;;5113914;28;20458;-67
2021/07/30 01:22:50;;;;;;;14.63;13.73;;;17.10;99.90;;;;;;5114013;28;20828;-67
2021/07/30 01:25:18;;;;;;;15.17;13.80;;;17.10;99.90;;;;;;5113818;28;20446;-67
2021/07/30 01:27:45;;;;;;;14.77;13.87;;;17.10;99.90;;;;;;5114065;28;20481;-67
2021/07/30 01:30:13;;;;;;;15.03;13.67;;;17.20;99.90;;;;;;5113929;28;20478;-67
2021/07/30 01:32:40;;;;;;;15.00;13.70;;;17.20;99.90;;;;;;5113709;28;20445;-67
2021/07/30 01:35:07;;;;;;;16.03;14.67;;;17.20;99.90;;;;;;5113461;28;20477;-67
2021/07/30 01:37:34;;;;;;;14.67;13.87;;;17.10;99.90;;;;;;5113784;28;20445;-67
2021/07/30 01:40:03;;;;;;;14.67;13.97;;;17.10;99.90;;;;;;5113853;28;20514;-67
2021/07/30 01:42:30;;;;;;;15.10;14.30;;;17.10;99.90;;;;;;5113404;28;20441;-67
2021/07/30 01:44:56;;;;;;;15.40;14.33;;;17.10;99.90;;;;;;5113655;28;20441;-67
2021/07/30 01:47:23;;;;;;;15.07;14.30;;;17.10;99.90;;;;;;5113746;28;20872;-68
2021/07/30 01:49:51;;;;;;;15.00;14.27;;;17.10;99.90;;;;;;5113310;28;20477;-68
2021/07/30 01:52:18;;;;;;;15.13;14.07;;;17.20;99.90;;;;;;5113117;28;20449;-67
2021/07/30 01:54:45;;;;;;;14.27;13.20;;;17.20;99.90;;;;;;5113508;28;20815;-68
2021/07/30 01:57:13;;;;;;;14.10;13.43;;;17.10;99.90;;;;;;5113268;28;20956;-67
2021/07/30 01:59:40;;;;;;;14.23;13.33;;;17.10;99.90;;;;;;5113457;28;21003;-67
2021/07/30 02:02:07;;;;;;;14.83;13.47;;;17.10;99.90;;;;;;5112742;28;20540;-68
2021/07/30 02:04:34;;;;;;;13.97;13.10;;;17.00;99.90;;;;;;5113345;28;20445;-67
2021/07/30 02:07:01;;;;;;;14.20;13.40;;;17.00;99.90;;;;;;5113136;28;20445;-67
2021/07/30 02:09:29;;;;;;;14.07;13.17;;;16.90;99.90;;;;;;5112636;28;20517;-67
2021/07/30 02:11:55;;;;;;;14.10;13.40;;;16.80;99.90;;;;;;5112862;28;20467;-68
2021/07/30 02:14:25;;;;;;;15.20;14.03;;;16.80;99.90;;;;;;5112911;28;20460;-67
2021/07/30 02:16:54;;;;;;;14.30;13.10;;;16.70;99.90;;;;;;5113127;28;20484;-67
2021/07/30 02:19:22;;;;;;;14.00;13.10;;;16.60;99.90;;;;;;5112569;28;20500;-67
2021/07/30 02:21:50;;;;;;;13.73;12.93;;;16.50;99.90;;;;;;5112781;28;20854;-67
2021/07/30 02:24:16;;;;;;;13.80;12.80;;;16.40;99.90;;;;;;5112707;28;20452;-67
2021/07/30 02:26:43;;;;;;;13.40;12.80;;;16.20;99.90;;;;;;5113018;28;20445;-67
2021/07/30 02:29:10;;;;;;;13.57;12.67;;;16.10;99.90;;;;;;5112417;28;20468;-67
2021/07/30 02:31:38;;;;;;;13.90;13.10;;;16.00;99.90;;;;;;5112564;28;20442;-67
2021/07/30 02:34:05;;;;;;;14.57;13.57;;;15.90;99.90;;;;;;5112643;28;20445;-67
2021/07/30 02:36:31;;;;;;;14.13;13.33;;;15.80;99.90;;;;;;5105170;28;20453;-67
2021/07/30 02:38:58;;;;;;;13.00;12.10;;;15.80;99.90;;;;;;5112648;28;20874;-67
2021/07/30 02:41:28;;;;;;;12.30;11.70;;;15.70;99.90;;;;;;5112411;28;20814;-67
2021/07/30 02:43:56;;;;;;;13.13;12.10;;;15.60;99.90;;;;;;5112611;27;20963;-67
2021/07/30 02:46:23;;;;;;;11.50;10.90;;;15.60;99.90;;;;;;5112368;28;20442;-67
2021/07/30 02:48:52;;;;;;;13.27;12.27;;;15.50;99.90;;;;;;5112422;28;20469;-67
2021/07/30 02:51:19;;;;;;;11.43;10.73;;;15.50;99.90;;;;;;5111651;28;20492;-67
2021/07/30 02:53:45;;;;;;;11.80;10.90;;;15.40;99.90;;;;;;5112534;28;20453;-67
2021/07/30 02:56:12;;;;;;;10.63;10.03;;;15.40;99.90;;;;;;5111170;28;20438;-68
2021/07/30 02:58:39;;;;;;;10.73;10.10;;;15.30;99.90;;;;;;5111626;28;20460;-67
2021/07/30 03:01:05;;;;;;;9.50;9.10;;;15.30;99.90;;;;;;5111306;28;20429;-66
2021/07/30 03:03:32;;;;;;;10.07;9.27;;;15.30;99.90;;;;;;5112050;28;20441;-66
2021/07/30 03:06:01;;;;;;;15.73;9.47;;;15.30;99.90;;;;;;5111830;28;20438;-66
2021/07/30 03:08:28;;;;;;;9.03;8.43;;;15.40;99.90;;;;;;5111155;28;20480;-66
2021/07/30 03:10:55;;;;;;;11.33;10.23;;;15.40;99.90;;;;;;5110825;28;20476;-66
2021/07/30 03:13:22;;;;;;;9.53;8.80;;;15.50;99.90;;;;;;5111820;28;20464;-66
2021/07/30 03:15:53;;;;;;;10.43;9.83;;;15.60;99.90;;;;;;5111116;28;20433;-66
2021/07/30 03:18:20;;;;;;;9.47;8.97;;;15.50;99.90;;;;;;5111464;28;20489;-68
2021/07/30 03:20:47;;;;;;;10.57;9.77;;;15.50;99.90;;;;;;5111785;28;20437;-67
2021/07/30 03:23:15;;;;;;;10.37;9.47;;;15.50;99.90;;;;;;5111534;28;20453;-67
2021/07/30 03:25:42;;;;;;;9.97;9.27;;;15.50;99.90;;;;;;5112006;28;20449;-66
2021/07/30 03:28:08;;;;;;;9.27;8.77;;;15.40;99.90;;;;;;5111513;28;20453;-67
2021/07/30 03:30:35;;;;;;;13.10;8.83;;;15.40;99.90;;;;;;5111580;28;20469;-67
2021/07/30 03:33:03;;;;;;;9.23;8.73;;;15.40;99.90;;;;;;5111600;28;20809;-68
2021/07/30 03:35:30;;;;;;;9.13;8.53;;;15.50;99.90;;;;;;5103902;28;20499;-68
2021/07/30 03:37:57;;;;;;;11.33;10.27;;;15.40;99.90;;;;;;5111731;28;20494;-68
2021/07/30 03:40:25;;;;;;;12.73;11.73;;;15.40;99.90;;;;;;5111228;28;20430;-66
2021/07/30 03:42:52;;;;;;;8.90;8.40;;;15.40;99.90;;;;;;5111310;28;20434;-68
2021/07/30 03:45:18;;;;;;;11.40;10.40;;;15.40;99.90;;;;;;5111175;28;20441;-67
2021/07/30 03:47:45;;;;;;;10.83;9.70;;;15.40;99.90;;;;;;5111509;28;20449;-68
2021/07/30 03:50:12;;;;;;;10.70;9.67;;;15.50;99.90;;;;;;5111315;28;20541;-67
2021/07/30 03:52:39;;;;;;;10.10;9.17;;;15.40;99.90;;;;;;5111206;28;20437;-67
2021/07/30 03:55:06;;;;;;;9.87;8.90;;;15.50;99.90;;;;;;5111279;28;20445;-68
2021/07/30 03:57:34;;;;;;;10.57;9.73;;;15.50;99.90;;;;;;5103208;28;20433;-67
2021/07/30 04:00:01;;;;;;;10.43;9.57;;;15.50;99.90;;;;;;5111172;28;20469;-67
2021/07/30 04:02:28;;;;;;;9.17;8.57;;;15.50;99.90;;;;;;5111312;28;20448;-67
2021/07/30 04:04:55;;;;;;;8.83;8.33;;;15.40;99.90;;;;;;5111028;28;20445;-67
2021/07/30 04:07:21;;;;;;;10.60;9.30;;;15.40;99.90;;;;;;5112228;28;20449;-67
2021/07/30 04:09:48;;;;;;;9.93;9.00;;;15.40;99.90;;;;;;5115270;28;20481;-67
2021/07/30 04:12:15;;;;;;;10.07;9.27;;;15.40;99.90;;;;;;5114624;28;20449;-68
2021/07/30 04:14:43;;;;;;;10.40;9.40;;;15.40;99.90;;;;;;5114936;28;20447;-67
2021/07/30 04:17:11;;;;;;;9.30;8.70;;;15.40;99.90;;;;;;5115001;28;20449;-67
2021/07/30 04:19:43;;;;;;;9.13;8.47;;;15.40;99.90;;;;;;5115233;28;20465;-67
2021/07/30 04:22:10;;;;;;;9.40;8.57;;;15.40;99.90;;;;;;5114234;28;20450;-67
2021/07/30 04:24:37;;;;;;;9.87;9.00;;;15.40;99.90;;;;;;5115240;28;20897;-69
2021/07/30 04:27:03;;;;;;;10.70;9.63;;;15.50;99.90;;;;;;5115046;28;20456;-67
2021/07/30 04:29:30;;;;;;;9.37;8.67;;;15.60;99.90;;;;;;5115094;28;20825;-67
2021/07/30 04:31:58;;;;;;;10.80;9.20;;;15.70;99.90;;;;;;5114412;28;20445;-67
2021/07/30 04:34:25;;;;;;;9.30;8.70;;;15.70;99.90;;;;;;5114969;28;21104;-67
2021/07/30 04:36:52;;;;;;;10.90;9.93;;;15.80;99.90;;;;;;5114422;28;20805;-67
2021/07/30 04:39:18;;;;;;;10.90;10.00;;;15.80;99.90;;;;;;5114424;28;20465;-65
2021/07/30 04:41:46;;;;;;;11.03;10.17;;;15.80;99.90;;;;;;5114141;28;20434;-67
2021/07/30 04:44:14;;;;;;;10.60;10.00;;;15.90;99.90;;;;;;5114401;28;20971;-67
2021/07/30 04:46:41;;;;;;;10.77;9.30;;;15.90;99.90;;;;;;5114911;28;21039;-65
2021/07/30 04:49:09;;;;;;;10.97;10.27;;;15.90;99.90;;;;;;5114263;28;20461;-68
2021/07/30 04:51:36;;;;;;;11.17;10.43;;;16.00;99.90;;;;;;5114002;28;20540;-67
2021/07/30 04:54:03;;;;;;;11.73;10.70;;;16.00;99.90;;;;;;5114189;28;20448;-67
2021/07/30 04:56:29;;;;;;;12.27;11.17;;;16.00;99.90;;;;;;5114336;28;20449;-67
2021/07/30 04:58:56;;;;;;;11.13;10.47;;;16.10;99.90;;;;;;5114011;28;20827;-66
2021/07/30 05:01:23;;;;;;;10.50;9.50;;;16.20;99.90;;;;;;5113271;28;20446;-66
2021/07/30 05:03:49;;;;;;;12.47;11.47;;;16.30;99.90;;;;;;5113853;28;20442;-67
2021/07/30 05:06:19;;;;;;;12.33;11.43;;;16.40;99.90;;;;;;5114225;28;20501;-66
2021/07/30 05:08:46;;;;;;;12.07;11.27;;;16.50;99.90;;;;;;5095399;28;20473;-67
2021/07/30 05:11:13;;;;;;;13.80;12.63;;;16.50;99.90;;;;;;5113486;28;20473;-66
2021/07/30 05:13:41;;;;;;;12.67;11.97;;;16.60;99.90;;;;;;5108542;28;20438;-67
2021/07/30 05:16:08;;;;;;;14.17;13.47;;;16.60;99.90;;;;;;5113890;28;20985;-67
2021/07/30 05:18:35;;;;;;;14.17;13.27;;;16.60;99.90;;;;;;5113481;28;20485;-67
2021/07/30 05:21:04;;;;;;;13.03;12.33;;;16.60;99.90;;;;;;5113322;28;20433;-67
2021/07/30 05:23:33;;;;;;;14.23;13.03;;;16.80;99.90;;;;;;5109438;28;20488;-66
2021/07/30 05:26:00;;;;;;;17.73;16.37;;;16.90;99.90;;;;;;5113462;28;20449;-67
2021/07/30 05:28:28;;;;;;;14.00;13.23;;;16.90;99.90;;;;;;5113142;28;20465;-68
2021/07/30 05:30:55;;;;;;;15.60;14.10;;;16.90;99.90;;;;;;5113657;28;20995;-67
2021/07/30 05:33:22;;;;;;;14.13;12.93;;;17.10;99.90;;;;;;5114285;28;20449;-67
2021/07/30 05:35:48;;;;;;;15.10;14.10;;;17.10;99.90;;;;;;5113244;28;20452;-67
2021/07/30 05:38:15;;;;;;;14.60;13.87;;;17.20;99.90;;;;;;5113463;28;20461;-67
2021/07/30 05:40:45;;;;;;;15.57;14.67;;;17.30;99.90;;;;;;5113877;28;20434;-67
2021/07/30 05:43:11;;;;;;;14.47;13.23;;;17.40;99.90;;;;;;5113032;28;20450;-67
2021/07/30 05:45:38;;;;;;;15.00;14.03;;;17.50;99.90;;;;;;5113797;28;21014;-67
2021/07/30 05:48:07;;;;;;;14.90;14.13;;;17.60;99.90;;;;;;5113283;28;20449;-67
2021/07/30 05:50:34;;;;;;;15.00;13.80;;;17.70;99.90;;;;;;5113341;28;20481;-67
2021/07/30 05:53:00;;;;;;;15.67;14.90;;;17.90;99.90;;;;;;5112385;28;20446;-67
2021/07/30 05:55:27;;;;;;;17.03;16.10;;;18.00;99.90;;;;;;5112890;28;20824;-67
2021/07/30 05:57:57;;;;;;;17.00;15.97;;;18.20;99.90;;;;;;5113089;28;20441;-67
2021/07/30 06:00:24;;;;;;;17.30;16.30;;;18.20;99.90;;;;;;5104193;28;20438;-67
2021/07/30 06:02:51;;;;;;;16.70;15.83;;;18.30;99.90;;;;;;5111186;28;20442;-67
2021/07/30 06:05:17;;;;;;;17.60;16.70;;;18.30;99.90;;;;;;5110649;28;20441;-67
2021/07/30 06:07:44;;;;;;;17.37;16.20;;;18.30;99.90;;;;;;5111489;28;20453;-67
2021/07/30 06:10:11;;;;;;;17.60;16.60;;;18.20;99.90;;;;;;5110094;28;20461;-67
2021/07/30 06:12:38;;;;;;;18.00;17.07;;;18.20;99.90;;;;;;5110386;28;20461;-68
2021/07/30 06:15:08;;;;;;;17.70;16.80;;;18.30;99.90;;;;;;5110331;28;20434;-67
2021/07/30 06:17:35;;;;;;;17.90;16.70;;;18.40;99.90;;;;;;5111993;28;20437;-68
2021/07/30 06:20:01;;;;;;;16.70;15.90;;;18.40;99.90;;;;;;5112238;28;20554;-67
2021/07/30 06:22:28;;;;;;;17.33;16.43;;;18.40;99.90;;;;;;5111951;28;20437;-68
2021/07/30 06:24:55;;;;;;;18.47;17.57;;;18.50;99.90;;;;;;5112124;28;20441;-67
2021/07/30 06:27:21;;;;;;;17.30;16.50;;;18.50;99.90;;;;;;5112606;28;20446;-67
2021/07/30 06:29:48;;;;;;;17.43;16.63;;;18.60;99.90;;;;;;5112584;28;20838;-68
2021/07/30 06:32:16;;;;;;;17.33;16.27;;;18.70;99.90;;;;;;5112668;28;20845;-68
2021/07/30 06:34:43;;;;;;;18.93;17.60;;;18.80;99.90;;;;;;5112852;28;20445;-68
2021/07/30 06:37:09;;;;;;;17.77;16.77;;;18.80;99.90;;;;;;5113088;28;20438;-68
2021/07/30 06:39:36;;;;;;;18.07;16.77;;;19.00;99.90;;;;;;5112755;28;20464;-68
2021/07/30 06:42:03;;;;;;;18.37;17.40;;;19.00;99.90;;;;;;5112901;28;20433;-68
2021/07/30 06:44:30;;;;;;;17.93;16.93;;;19.20;99.90;;;;;;5112688;28;20869;-68
2021/07/30 06:46:56;;;;;;;18.27;17.27;;;19.30;99.90;;;;;;5112802;28;20948;-68
2021/07/30 06:49:24;;;;;;;19.37;17.77;;;19.40;99.90;;;;;;5112798;28;20484;-68
2021/07/30 06:51:51;;;;;;;18.07;17.07;;;19.40;99.90;;;;;;5112329;28;20504;-68
2021/07/30 06:54:18;;;;;;;18.57;17.40;;;19.50;99.90;;;;;;5112531;28;20453;-68
2021/07/30 06:56:46;;;;;;;18.97;18.00;;;19.60;99.90;;;;;;5112556;28;20448;-69
2021/07/30 06:59:12;;;;;;;18.53;17.40;;;19.60;99.90;;;;;;5112591;28;20552;-69
2021/07/30 07:01:39;;;;;;;18.07;17.07;;;19.60;99.90;;;;;;5112401;28;20441;-69
2021/07/30 07:04:06;;;;;;;18.50;17.40;;;19.60;99.90;;;;;;5112412;28;20446;-69
2021/07/30 07:06:34;;;;;;;18.10;17.20;;;19.60;99.90;;;;;;5112528;28;20441;-69
2021/07/30 07:09:00;;;;;;;17.07;16.07;;;19.60;99.90;;;;;;5112238;28;20995;-69
2021/07/30 07:11:27;;;;;;;18.03;17.03;;;19.60;99.90;;;;;;5111839;28;20987;-69
2021/07/30 07:13:54;;;;;;;17.47;16.57;;;19.80;99.90;;;;;;5112116;28;20437;-69
2021/07/30 07:16:20;;;;;;;18.10;17.00;;;19.90;99.90;;;;;;5112345;28;20468;-69
2021/07/30 07:18:47;;;;;;;18.60;17.50;;;20.10;99.90;;;;;;5112232;28;20495;-69
2021/07/30 07:21:14;;;;;;;17.50;16.70;;;20.30;99.90;;;;;;5111894;28;20445;-69
2021/07/30 07:23:43;;;;;;;17.67;16.77;;;20.40;99.90;;;;;;5112175;28;20445;-69
2021/07/30 07:26:09;;;;;;;17.70;16.60;;;20.50;99.90;;;;;;5112114;28;20476;-68
2021/07/30 07:28:36;;;;;;;17.13;16.33;;;20.50;99.90;;;;;;5112011;28;20480;-67
2021/07/30 07:31:03;;;;;;;18.53;17.23;;;20.50;99.90;;;;;;5111666;28;20473;-68
2021/07/30 07:33:29;;;;;;;18.53;17.33;;;20.50;99.90;;;;;;5111890;28;20449;-68
2021/07/30 07:35:56;;;;;;;17.10;16.30;;;20.50;99.90;;;;;;5111904;28;20480;-68
2021/07/30 07:38:23;;;;;;;17.60;16.60;;;20.70;99.90;;;;;;5111713;28;20466;-67
2021/07/30 07:40:51;;;;;;;17.50;16.60;;;20.90;99.90;;;;;;5111896;28;20449;-68
2021/07/30 07:43:18;;;;;;;17.10;16.00;;;21.10;99.90;;;;;;5111780;28;20434;-67
2021/07/30 07:45:44;;;;;;;17.60;16.60;;;21.30;99.90;;;;;;5111932;28;20440;-67
2021/07/30 07:48:11;;;;;;;16.73;16.03;;;21.50;99.90;;;;;;5111359;28;20470;-67
2021/07/30 07:50:38;;;;;;;16.50;15.80;;;21.60;99.90;;;;;;5112007;28;20445;-67
2021/07/30 07:53:12;;;;;;;16.53;15.73;;;21.80;99.90;;;;;;5111633;28;20445;-68
2021/07/30 07:55:39;;;;;;;17.10;16.20;;;21.80;99.90;;;;;;5111831;28;20437;-67
2021/07/30 07:58:07;;;;;;;17.27;16.30;;;21.90;99.90;;;;;;5111537;28;21112;-68
2021/07/30 08:00:34;;;;;;;16.23;15.53;;;22.00;99.90;;;;;;5111747;28;20445;-67
2021/07/30 08:03:00;;;;;;;16.43;15.83;;;22.20;99.90;;;;;;5111515;28;20445;-68
2021/07/30 08:05:27;;;;;;;17.93;17.23;;;22.50;99.60;;;;;;5111732;28;20445;-68
2021/07/30 08:07:54;;;;;;;16.97;16.27;;;22.70;98.60;;;;;;5111152;28;20446;-68
2021/07/30 08:10:21;;;;;;;17.17;16.27;;;23.00;97.50;;;;;;5111505;28;20436;-67
2021/07/30 08:12:48;;;;;;;17.70;16.87;;;23.30;96.90;;;;;;5111393;28;21300;-68
2021/07/30 08:15:16;;;;;;;18.43;17.53;;;23.60;95.80;;;;;;5111713;28;20445;-67
2021/07/30 08:17:42;;;;;;;17.70;16.90;;;23.80;95.30;;;;;;5111334;28;20963;-67
2021/07/30 08:20:10;;;;;;;16.80;16.20;;;23.80;94.80;;;;;;5111383;28;20473;-68
2021/07/30 08:22:38;;;;;;;17.90;17.20;;;23.70;94.80;;;;;;5111158;28;20441;-67
2021/07/30 08:25:06;;;;;;;16.87;16.27;;;23.50;94.30;;;;;;5111336;28;20596;-67
2021/07/30 08:27:33;;;;;;;16.77;16.17;;;23.40;94.30;;;;;;5111336;28;20437;-67
2021/07/30 08:29:59;;;;;;;17.77;16.60;;;23.40;94.40;;;;;;5111302;28;20457;-67
2021/07/30 08:32:27;;;;;;;17.90;17.10;;;23.30;94.40;;;;;;5111181;28;20500;-67
2021/07/30 08:34:54;;;;;;;17.67;16.97;;;23.30;94.90;;;;;;5111121;28;20446;-67
2021/07/30 08:37:20;;;;;;;16.97;16.17;;;23.30;94.50;;;;;;5111461;28;20800;-67
2021/07/30 08:39:47;;;;;;;16.97;16.27;;;23.40;95.40;;;;;;5111297;28;20461;-67
2021/07/30 08:42:15;;;;;;;16.13;15.53;;;23.50;95.20;;;;;;5111049;28;20810;-67
2021/07/30 08:44:42;;;;;;;17.50;16.60;;;23.50;93.70;;;;;;5111395;28;20446;-68
2021/07/30 08:47:10;;;;;;;17.13;16.53;;;23.60;94.60;;;;;;5111193;28;20442;-68
2021/07/30 08:49:38;;;;;;;17.27;16.67;;;23.70;94.60;;;;;;5111179;28;20453;-68
2021/07/30 08:52:08;;;;;;;16.87;16.27;;;23.70;94.50;;;;;;5110932;28;20485;-68
2021/07/30 08:54:35;;;;;;;17.33;16.53;;;23.80;93.90;;;;;;5093392;28;20445;-68
2021/07/30 08:57:01;;;;;;;17.17;16.37;;;23.90;92.90;;;;;;5094699;28;20967;-68
2021/07/30 08:59:28;;;;;;;16.90;16.20;;;24.00;92.50;;;;;;5094591;28;20458;-68
2021/07/30 09:01:55;;;;;;;16.77;16.17;;;24.10;92.70;;;;;;5094172;28;20437;-68
2021/07/30 09:04:29;;;;;;;17.07;16.50;;;24.40;92.20;;;;;;5113162;28;20445;-67
2021/07/30 09:06:59;;;;;;;17.13;16.53;;;24.70;93.10;;;;;;5114436;28;20453;-68
2021/07/30 09:09:26;;;;;;;16.83;16.23;;;24.80;90.50;;;;;;5114627;28;20469;-67
2021/07/30 09:11:55;;;;;;;17.20;16.60;;;25.00;89.80;;;;;;5114329;28;20484;-68
2021/07/30 09:14:36;;;;;;;17.37;16.67;;;25.10;84.40;;;;;;5114465;28;20469;-68
2021/07/30 09:17:05;;;;;;;17.93;16.93;;;25.00;83.10;;;;;;5114458;28;20823;-68
2021/07/30 09:19:32;;;;;;;17.53;16.90;;;25.00;80.10;;;;;;5125582;22;20492;-64
2021/07/30 09:22:08;;;;;;;18.93;17.97;;;25.20;80.40;;;;;;5085491;28;20446;-64
2021/07/30 09:24:36;;;;;;;17.40;16.70;;;25.40;77.10;;;;;;5093914;28;20454;-64
2021/07/30 09:27:04;;;;;;;17.57;16.97;;;25.70;74.70;;;;;;5093988;28;20465;-64
2021/07/30 09:29:33;;;;;;;18.10;17.20;;;26.20;73.00;;;;;;5093893;28;20458;-64
2021/07/30 09:32:01;;;;;;;17.87;17.17;;;26.60;71.30;;;;;;5093619;28;20474;-64
2021/07/30 09:34:30;;;;;;;18.87;18.03;;;26.80;68.70;;;;;;5093636;28;20455;-64
2021/07/30 09:36:58;;;;;;;19.53;18.50;;;26.80;66.50;;;;;;5093856;28;20520;-65
2021/07/30 09:39:35;;;;;;;18.27;17.50;;;26.80;65.60;;;;;;5093826;28;20466;-65
2021/07/30 09:42:05;;;;;;;18.00;17.30;;;26.80;64.70;;;;;;5093605;28;20520;-64
2021/07/30 09:44:33;;;;;;;18.97;17.97;;;27.10;65.30;;;;;;5093448;28;20958;-65
2021/07/30 09:47:08;;;;;;;19.87;18.80;;;27.50;64.50;;;;;;5093581;28;20937;-64
2021/07/30 09:49:54;;;;;;;19.07;18.27;;;27.80;61.30;;;;;;5093529;28;20466;-64
2021/07/30 09:52:22;;;;;;;18.57;17.87;;;27.40;60.40;;;;;;5093017;28;20482;-64
2021/07/30 09:54:55;;;;;;;18.40;17.60;;;27.10;61.80;;;;;;5093649;28;20450;-64
2021/07/30 09:57:23;;;;;;;18.50;17.80;;;27.10;61.20;;;;;;5093530;28;20445;-64
2021/07/30 09:59:50;;;;;;;17.27;16.53;;;27.00;60.70;;;;;;5093123;28;20459;-65
2021/07/30 10:02:20;;;;;;;18.00;17.30;;;27.00;63.60;;;;;;5092977;28;20450;-64
2021/07/30 10:04:49;;;;;;;18.17;17.20;;;26.90;62.70;;;;;;5092322;28;20447;-64
2021/07/30 10:07:18;;;;;;;17.73;17.07;;;26.90;62.70;;;;;;5092795;28;20450;-64
2021/07/30 10:09:49;;;;;;;18.23;17.13;;;27.10;62.00;;;;;;5093117;28;20462;-64
2021/07/30 10:12:17;;;;;;;18.03;17.10;;;27.20;62.40;;;;;;5092901;28;20576;-64
2021/07/30 10:14:45;;;;;;;16.83;16.20;;;27.50;62.00;;;;;;5093234;28;20442;-64
2021/07/30 10:17:15;;;;;;;17.60;16.73;;;27.70;59.90;;;;;;5092823;28;20469;-64
2021/07/30 10:19:43;;;;;;;17.23;16.63;;;27.80;58.80;;;;;;5093003;28;20471;-65
2021/07/30 10:22:13;;;;;;;18.30;17.60;;;28.10;58.20;;;;;;5092634;28;20812;-64
2021/07/30 10:24:45;;;;;;;17.80;17.20;;;28.30;57.50;;;;;;5092992;28;20446;-66
2021/07/30 10:27:14;;;;;;;18.23;17.43;;;28.40;57.10;;;;;;5092671;28;20472;-65
2021/07/30 10:30:05;;;;;;;18.40;17.43;;;28.50;56.30;;;;;;5092604;28;20533;-65
2021/07/30 10:32:49;;;;;;;18.03;17.20;;;28.50;56.00;;;;;;5092435;28;20501;-65
2021/07/30 10:35:18;;;;;;;18.17;17.47;;;28.20;54.80;;;;;;5092284;28;20450;-64
2021/07/30 10:37:46;;;;;;;17.97;17.27;;;27.80;56.50;;;;;;5072365;28;20794;-64
2021/07/30 10:40:14;;;;;;;18.30;17.40;;;27.60;56.50;;;;;;5072200;28;20499;-64
2021/07/30 10:43:02;;;;;;;17.50;16.80;;;27.50;56.60;;;;;;5072097;28;20439;-65
2021/07/30 10:45:30;;;;;;;17.50;16.80;;;27.30;57.90;;;;;;5077189;28;20485;-65
2021/07/30 10:48:31;;;;;;;18.17;17.37;;;27.30;58.20;;;;;;5092294;28;20945;-64
2021/07/30 10:51:01;;;;;;;18.47;17.67;;;27.30;58.00;;;;;;5009961;28;21040;-65
2021/07/30 10:53:43;;;;;;;18.93;18.27;;;27.20;58.00;;;;;;5076468;28;20482;-64
2021/07/30 10:56:42;;;;;;;18.40;17.50;;;27.50;58.00;;;;;;5092344;28;20808;-64
2021/07/30 10:59:09;;;;;;;19.23;18.43;;;27.80;57.70;;;;;;5092196;28;20470;-64
2021/07/30 11:02:02;;;;;;;17.83;17.03;;;28.00;57.10;;;;;;5092039;28;20434;-65
2021/07/30 11:04:29;;;;;;;18.47;17.70;;;28.40;56.80;;;;;;5071886;28;20447;-65
2021/07/30 11:06:58;;;;;;;19.57;18.77;;;28.60;55.30;;;;;;5071830;28;20442;-64
2021/07/30 11:09:26;;;;;;;19.17;18.47;;;28.90;54.70;;;;;;5071771;28;20459;-65
2021/07/30 11:11:56;;;;;;;21.40;19.60;;;29.20;52.90;;;;;;5071440;28;20505;-64
2021/07/30 11:14:25;;;;;;;19.67;18.90;;;29.60;52.10;;;;;;5091816;28;20457;-64
2021/07/30 11:16:53;;;;;;;18.50;17.80;;;30.20;50.80;;;;;;5091618;28;20442;-65
2021/07/30 11:19:21;;;;;;;19.37;18.37;;;30.20;51.10;;;;;;5091715;28;20568;-64
2021/07/30 11:21:48;;;;;;;18.37;17.53;;;30.20;50.60;;;;;;5091570;28;20445;-64
2021/07/30 11:24:15;;;;;;;19.10;18.30;;;30.40;48.90;;;;;;5091683;28;20449;-64
2021/07/30 11:26:42;;;;;;;18.97;18.27;;;30.50;50.00;;;;;;5091752;28;20464;-65
2021/07/30 11:29:12;;;;;;;19.07;18.00;;;31.20;48.50;;;;;;5091712;28;20817;-64
2021/07/30 11:31:51;;;;;;;18.50;17.80;;;31.50;47.60;;;;;;5091478;28;20442;-64
2021/07/30 11:34:18;;;;;;;18.90;18.07;;;31.00;47.70;;;;;;5091393;28;20916;-64
2021/07/30 11:36:47;;;;;;;20.57;19.57;;;31.60;47.60;;;;;;5091695;28;20561;-65
2021/07/30 11:39:14;;;;;;;20.10;19.40;;;32.40;45.00;;;;;;5091215;28;21077;-64
2021/07/30 11:41:48;;;;;;;18.70;18.00;;;33.00;45.30;;;;;;5091168;28;20442;-64
2021/07/30 11:44:16;;;;;;;19.53;18.73;;;34.00;43.70;;;;;;5091578;28;20442;-64
2021/07/30 11:46:53;;;;;;;20.52;19.80;;;35.40;43.60;;;;;;5091605;28;20442;-64
2021/07/30 11:49:28;;;;;;;20.15;19.45;;;35.60;39.30;;;;;;5091195;28;20219;-64
2021/07/30 11:51:55;;;;;;;20.73;19.93;;;34.60;40.30;;;;;;5091325;28;20207;-65
2021/07/30 11:54:25;;;;;;;20.10;19.20;;;35.70;40.60;;;;;;5091443;28;20211;-65
2021/07/30 11:56:52;;;;;;;20.43;19.63;;;34.60;38.70;;;;;;5091078;28;20674;-65
2021/07/30 11:59:20;;;;;;;19.50;18.80;;;33.40;39.40;;;;;;5090642;28;20462;-64
2021/07/30 12:02:01;;;;;;;20.33;19.43;;;33.20;40.70;;;;;;5091362;28;20437;-64
2021/07/30 12:04:28;;;;;;;20.33;19.53;;;33.40;40.50;;;;;;5091205;28;20770;-64
2021/07/30 12:06:56;;;;;;;19.60;18.60;;;33.10;41.10;;;;;;5091390;28;20446;-64
2021/07/30 12:09:26;;;;;;;20.03;19.23;;;34.20;41.00;;;;;;5090907;28;20476;-65
2021/07/30 12:11:55;;;;;;;18.90;18.20;;;35.30;39.10;;;;;;5071026;28;20615;-65
2021/07/30 12:14:25;;;;;;;19.30;18.60;;;35.00;38.50;;;;;;5071247;28;20227;-64
2021/07/30 12:16:53;;;;;;;19.60;18.90;;;34.50;39.10;;;;;;5071081;28;20454;-65
2021/07/30 12:19:28;;;;;;;21.10;20.20;;;37.90;37.00;;;;;;5072574;28;20260;-65
2021/07/30 12:21:55;;;;;;;19.08;18.48;;;39.20;32.30;;;;;;5091011;28;20215;-66
2021/07/30 12:24:22;;;;;;;20.67;19.88;;;36.80;32.40;;;;;;5091113;28;20199;-65
2021/07/30 12:26:49;;;;;;;19.80;19.02;;;39.30;33.50;;;;;;5091207;28;20225;-65
2021/07/30 12:29:39;;;;;;;20.92;20.13;;;38.40;30.70;;;;;;5093013;28;20295;-64
2021/07/30 12:32:13;;;;;;;20.52;19.73;;;36.20;32.80;;;;;;5094886;28;20575;-65
2021/07/30 12:34:40;;;;;;;20.80;19.87;;;34.60;35.10;;;;;;5094989;28;20667;-65